Time;durP1;ratioP1;P1;durP2;ratioP2;P2;SDS_P1;SDS_P2;PMS_P1;PMS_P2;Temp;Humidity;BMP_temperature;BMP_pressure;BME280_temperature;BME280_humidity;BME280_pressure;Samples;Min_cycle;Max_cycle;Signal;HPM_P1;HPM_P2
2022/03/03 00:01:32;;;;;;;32.88;16.60;;;;;;;0.03;59.39;100666.72;5588961;31;34105;-62
2022/03/03 00:04:34;;;;;;;32.85;16.80;;;;;;;0.26;58.39;100658.31;5590072;31;34020;-62
2022/03/03 00:07:37;;;;;;;33.45;16.83;;;;;;;0.15;59.12;100669.41;5589736;31;33926;-62
2022/03/03 00:10:40;;;;;;;37.72;16.02;;;;;;;0.48;58.81;100663.87;5589527;31;34252;-63
2022/03/03 00:13:43;;;;;;;33.78;16.40;;;;;;;0.31;60.00;100664.09;5589670;31;34625;-63
2022/03/03 00:16:46;;;;;;;33.90;15.82;;;;;;;0.58;60.87;100667.56;5589674;31;33938;-63
2022/03/03 00:19:48;;;;;;;32.45;16.48;;;;;;;0.50;61.99;100666.38;5588849;31;34643;-63
2022/03/03 00:22:51;;;;;;;31.15;16.87;;;;;;;0.29;62.51;100669.38;5589832;31;33821;-63
2022/03/03 00:25:53;;;;;;;36.88;17.12;;;;;;;0.09;64.09;100667.19;5589979;31;33967;-63
2022/03/03 00:28:56;;;;;;;37.97;17.40;;;;;;;-0.03;64.44;100676.59;5589593;31;34685;-62
2022/03/03 00:31:59;;;;;;;33.20;16.80;;;;;;;-0.20;64.76;100674.19;5589381;31;33901;-63
2022/03/03 00:35:02;;;;;;;34.17;17.10;;;;;;;-0.32;66.13;100671.47;5589252;31;34593;-63
2022/03/03 00:38:06;;;;;;;34.63;17.65;;;;;;;-0.40;65.90;100671.09;5589310;31;34014;-63
2022/03/03 00:41:08;;;;;;;38.38;16.35;;;;;;;-0.34;65.73;100670.72;5589160;31;34255;-62
2022/03/03 00:44:11;;;;;;;34.60;17.42;;;;;;;-0.46;65.98;100672.28;5589191;31;33900;-62
2022/03/03 00:47:14;;;;;;;40.78;18.02;;;;;;;-0.48;65.17;100666.31;5589286;31;34251;-62
2022/03/03 00:50:16;;;;;;;32.95;17.30;;;;;;;-0.60;65.22;100657.47;5589312;31;34300;-63
2022/03/03 00:53:19;;;;;;;36.75;18.30;;;;;;;-0.67;65.39;100653.53;5589140;31;34383;-63
2022/03/03 00:56:22;;;;;;;37.75;17.40;;;;;;;-0.76;65.49;100656.69;5588967;31;34672;-62
2022/03/03 00:59:25;;;;;;;37.63;18.17;;;;;;;-0.83;65.90;100651.94;5589280;31;34005;-62
2022/03/03 01:02:28;;;;;;;37.83;18.55;;;;;;;-0.87;66.63;100646.87;5588962;31;34527;-61
2022/03/03 01:05:31;;;;;;;36.90;17.95;;;;;;;-0.93;67.29;100642.03;5589148;31;33872;-62
2022/03/03 01:08:33;;;;;;;38.47;18.40;;;;;;;-0.95;67.43;100643.87;5588144;31;34692;-62
2022/03/03 01:11:36;;;;;;;35.70;17.75;;;;;;;-1.01;67.71;100638.19;5589012;31;34160;-62
2022/03/03 01:14:39;;;;;;;40.88;19.20;;;;;;;-0.95;67.85;100632.63;5588775;31;34591;-62
2022/03/03 01:17:42;;;;;;;38.05;18.87;;;;;;;-1.03;68.61;100630.47;5588723;31;34593;-61
2022/03/03 01:20:44;;;;;;;36.92;19.30;;;;;;;-1.07;69.15;100628.13;5588611;31;34572;-62
2022/03/03 01:23:47;;;;;;;35.45;17.75;;;;;;;-1.12;69.65;100624.97;5588516;31;33878;-62
2022/03/03 01:26:50;;;;;;;37.22;19.10;;;;;;;-1.19;69.71;100632.28;5588338;31;33991;-61
2022/03/03 01:29:52;;;;;;;45.95;19.70;;;;;;;-1.28;71.40;100624.16;5588332;31;34074;-62
2022/03/03 01:32:55;;;;;;;42.62;20.62;;;;;;;-1.35;72.04;100624.47;5588497;31;33888;-61
2022/03/03 01:35:58;;;;;;;40.50;19.83;;;;;;;-1.40;72.50;100625.66;5588386;31;34242;-62
2022/03/03 01:39:02;;;;;;;39.40;19.12;;;;;;;-1.50;73.09;100632.34;5588369;31;35299;-62
2022/03/03 01:42:05;;;;;;;43.85;19.75;;;;;;;-1.55;72.50;100623.94;5587938;31;34105;-62
2022/03/03 01:45:09;;;;;;;45.75;20.77;;;;;;;-1.58;72.33;100616.28;5588155;31;34488;-61
2022/03/03 01:48:11;;;;;;;36.30;18.00;;;;;;;-1.56;72.11;100604.88;5588124;31;33984;-61
2022/03/03 01:51:14;;;;;;;39.55;19.85;;;;;;;-1.55;71.60;100603.13;5588220;31;34664;-61
2022/03/03 01:54:18;;;;;;;37.42;19.17;;;;;;;-1.59;71.90;100601.59;5587868;31;33959;-62
2022/03/03 01:57:21;;;;;;;41.37;19.48;;;;;;;-1.59;72.03;100601.59;5587913;31;33935;-62
2022/03/03 02:00:24;;;;;;;42.08;20.00;;;;;;;-1.63;72.40;100598.34;5587886;31;33917;-62
2022/03/03 02:03:27;;;;;;;33.17;18.60;;;;;;;-1.68;72.65;100602.94;5587702;31;34576;-61
2022/03/03 02:06:30;;;;;;;37.78;19.23;;;;;;;-1.72;72.90;100591.03;5587655;31;33969;-62
2022/03/03 02:09:34;;;;;;;33.45;17.58;;;;;;;-1.76;72.84;100592.16;5587752;31;34531;-62
2022/03/03 02:12:37;;;;;;;37.55;18.77;;;;;;;-1.78;73.10;100593.97;5587588;31;34751;-62
2022/03/03 02:15:46;;;;;;;39.53;18.95;;;;;;;-1.78;73.85;100586.19;5588098;31;34030;-62
2022/03/03 02:18:49;;;;;;;38.42;18.58;;;;;;;-1.82;73.57;100589.87;5590522;31;34281;-61
2022/03/03 02:21:53;;;;;;;37.50;18.30;;;;;;;-1.83;74.16;100590.78;5590560;31;33934;-62
2022/03/03 02:24:55;;;;;;;34.00;17.98;;;;;;;-1.86;74.37;100583.16;5590373;31;34601;-63
2022/03/03 02:27:58;;;;;;;37.60;18.35;;;;;;;-1.76;74.22;100585.19;5590333;31;34593;-62
2022/03/03 02:31:00;;;;;;;36.28;18.25;;;;;;;-1.83;74.43;100581.22;5586258;31;137030;-62
2022/03/03 02:34:03;;;;;;;41.72;19.25;;;;;;;-1.89;74.62;100586.75;5590330;31;34696;-63
2022/03/03 02:37:06;;;;;;;36.72;18.40;;;;;;;-1.91;75.05;100574.78;5590415;31;34642;-62
2022/03/03 02:40:21;;;;;;;40.50;19.33;;;;;;;-1.95;75.36;100575.87;5590761;31;34585;-62
2022/03/03 02:43:24;;;;;;;35.25;18.27;;;;;;;-2.00;75.87;100578.72;5590294;31;34850;-62
2022/03/03 02:46:27;;;;;;;43.25;20.27;;;;;;;-2.00;75.77;100580.47;5590441;31;33939;-62
2022/03/03 02:49:29;;;;;;;41.22;20.83;;;;;;;-2.01;75.49;100587.44;5590495;31;34588;-62
2022/03/03 02:52:32;;;;;;;40.08;21.00;;;;;;;-2.07;76.03;100577.38;5590357;31;33998;-62
2022/03/03 02:55:35;;;;;;;40.15;21.23;;;;;;;-2.06;76.37;100573.00;5590381;31;34535;-62
2022/03/03 02:58:38;;;;;;;38.45;21.02;;;;;;;-2.02;77.64;100569.31;5590313;31;34860;-62
2022/03/03 03:01:40;;;;;;;37.85;20.77;;;;;;;-2.04;77.47;100568.59;5590320;31;33979;-62
2022/03/03 03:04:43;;;;;;;39.92;21.08;;;;;;;-2.06;77.33;100560.00;5590233;31;34001;-62
2022/03/03 03:07:46;;;;;;;39.95;20.15;;;;;;;-2.16;77.80;100561.44;5590312;31;33969;-62
2022/03/03 03:10:49;;;;;;;46.50;20.40;;;;;;;-2.21;78.24;100557.31;5590274;31;33921;-62
2022/03/03 03:13:51;;;;;;;41.22;22.70;;;;;;;-2.28;78.49;100558.59;5590147;31;34212;-62
2022/03/03 03:16:54;;;;;;;38.25;19.58;;;;;;;-2.37;79.07;100556.47;5590189;31;34575;-62
2022/03/03 03:19:57;;;;;;;45.42;21.25;;;;;;;-2.37;79.52;100561.66;5590232;31;34268;-62
2022/03/03 03:23:00;;;;;;;40.95;20.95;;;;;;;-2.46;80.47;100562.16;5590087;31;33855;-62
2022/03/03 03:26:02;;;;;;;41.50;20.95;;;;;;;-2.34;81.52;100561.50;5590051;31;34619;-63
2022/03/03 03:29:05;;;;;;;46.25;21.73;;;;;;;-1.79;79.58;100561.09;5589052;31;34328;-62
2022/03/03 03:32:08;;;;;;;44.00;21.55;;;;;;;-1.99;79.71;100559.63;5589918;31;34287;-62
2022/03/03 03:35:11;;;;;;;49.75;21.50;;;;;;;-2.16;81.26;100562.28;5590046;31;34598;-62
2022/03/03 03:38:14;;;;;;;42.38;22.60;;;;;;;-2.31;81.24;100550.94;5590040;31;34771;-62
2022/03/03 03:41:16;;;;;;;40.22;22.05;;;;;;;-2.40;81.75;100546.25;5589971;31;34077;-62
2022/03/03 03:44:19;;;;;;;42.45;23.10;;;;;;;-2.50;82.25;100549.41;5588988;31;34885;-62
2022/03/03 03:47:22;;;;;;;42.40;22.70;;;;;;;-2.46;82.65;100556.09;5589849;31;34147;-62
2022/03/03 03:50:25;;;;;;;42.40;21.77;;;;;;;-2.36;82.83;100554.72;5590090;31;34588;-62
2022/03/03 03:53:28;;;;;;;43.13;23.48;;;;;;;-2.49;83.17;100564.91;5589984;31;33964;-62
2022/03/03 03:56:30;;;;;;;42.80;22.52;;;;;;;-2.40;83.06;100555.78;5589845;31;34422;-62
2022/03/03 03:59:33;;;;;;;43.78;22.60;;;;;;;-2.35;82.65;100559.84;5589670;31;34797;-61
2022/03/03 04:02:36;;;;;;;39.22;21.65;;;;;;;-2.44;82.92;100560.31;5590134;31;34322;-62
2022/03/03 04:05:39;;;;;;;45.58;23.83;;;;;;;-2.30;82.73;100552.63;5589671;31;34587;-62
2022/03/03 04:08:41;;;;;;;43.70;23.48;;;;;;;-2.41;84.35;100549.75;5588890;31;33946;-62
2022/03/03 04:11:44;;;;;;;48.08;24.90;;;;;;;-2.54;84.33;100546.13;5589555;31;34043;-62
2022/03/03 04:14:47;;;;;;;41.47;21.90;;;;;;;-2.65;84.86;100541.50;5589374;31;34090;-61
2022/03/03 04:17:50;;;;;;;49.05;21.83;;;;;;;-2.75;85.32;100540.31;5589423;31;34357;-63
2022/03/03 04:20:52;;;;;;;44.58;21.25;;;;;;;-2.80;85.64;100544.06;5589398;31;34042;-63
2022/03/03 04:23:55;;;;;;;48.72;21.00;;;;;;;-2.85;85.93;100533.06;5589612;31;34530;-63
2022/03/03 04:26:57;;;;;;;43.47;21.27;;;;;;;-2.87;86.14;100542.72;5589411;31;34667;-62
2022/03/03 04:30:00;;;;;;;47.05;21.48;;;;;;;-2.84;86.45;100543.38;5589047;31;34068;-62
2022/03/03 04:33:03;;;;;;;44.03;22.02;;;;;;;-2.88;87.78;100543.62;5589216;31;34631;-63
2022/03/03 04:36:06;;;;;;;42.25;21.42;;;;;;;-2.50;86.52;100547.66;5589283;31;33873;-62
2022/03/03 04:39:09;;;;;;;41.37;22.17;;;;;;;-2.50;86.42;100545.06;5588951;31;34559;-62
2022/03/03 04:42:11;;;;;;;42.95;22.65;;;;;;;-2.69;88.37;100546.94;5589336;31;33992;-62
2022/03/03 04:45:14;;;;;;;45.92;22.13;;;;;;;-2.77;88.72;100541.31;5589158;31;34773;-62
2022/03/03 04:48:17;;;;;;;95.50;21.95;;;;;;;-2.77;89.09;100538.72;5589144;31;34636;-63
2022/03/03 04:51:20;;;;;;;42.15;21.37;;;;;;;-2.66;89.38;100538.97;5589565;31;33941;-63
2022/03/03 04:54:22;;;;;;;40.88;22.33;;;;;;;-2.72;88.56;100541.91;5589210;31;34011;-62
2022/03/03 04:57:25;;;;;;;46.15;22.75;;;;;;;-2.62;87.76;100537.94;5589263;31;34212;-63
2022/03/03 05:00:28;;;;;;;40.58;22.25;;;;;;;-2.68;89.03;100538.25;5589224;31;33989;-63
2022/03/03 05:03:31;;;;;;;46.30;22.73;;;;;;;-2.66;88.54;100528.59;5589344;31;33963;-62
2022/03/03 05:06:34;;;;;;;43.65;22.60;;;;;;;-2.80;89.37;100531.91;5588966;31;33855;-62
2022/03/03 05:09:37;;;;;;;47.90;23.02;;;;;;;-2.61;88.23;100531.78;5588827;31;34429;-62
2022/03/03 05:12:39;;;;;;;41.33;22.45;;;;;;;-2.78;88.91;100537.88;5588477;31;34041;-62
2022/03/03 05:15:42;;;;;;;49.80;22.55;;;;;;;-2.87;89.26;100538.34;5588630;31;34479;-63
2022/03/03 05:18:45;;;;;;;42.78;22.05;;;;;;;-2.85;89.85;100538.25;5588703;31;33942;-64
2022/03/03 05:21:47;;;;;;;43.05;22.65;;;;;;;-2.83;90.06;100531.25;5588462;31;34399;-62
2022/03/03 05:24:52;;;;;;;43.58;21.95;;;;;;;-2.75;88.82;100542.06;5588554;31;34004;-62
2022/03/03 05:27:55;;;;;;;45.97;22.45;;;;;;;-2.86;89.42;100545.22;5588441;31;34600;-62
2022/03/03 05:30:58;;;;;;;40.05;21.05;;;;;;;-2.94;89.33;100551.72;5588439;31;34130;-62
2022/03/03 05:34:02;;;;;;;46.42;22.87;;;;;;;-2.73;88.63;100555.81;5588763;31;34700;-63
2022/03/03 05:37:06;;;;;;;42.33;21.67;;;;;;;-2.76;87.99;100551.59;5588560;31;33880;-63
2022/03/03 05:40:12;;;;;;;43.65;22.77;;;;;;;-2.90;89.07;100554.06;5588506;31;34001;-62
2022/03/03 05:43:15;;;;;;;40.40;22.77;;;;;;;-2.64;88.25;100556.19;5587501;31;34575;-63
2022/03/03 05:46:18;;;;;;;48.28;24.15;;;;;;;-2.67;88.67;100551.16;5588055;31;34347;-63
2022/03/03 05:49:22;;;;;;;44.50;22.35;;;;;;;-2.65;89.30;100551.06;5587947;31;34686;-63
2022/03/03 05:52:25;;;;;;;46.80;22.92;;;;;;;-2.54;89.52;100553.09;5590512;31;34790;-63
2022/03/03 05:55:30;;;;;;;40.90;21.98;;;;;;;-2.64;89.73;100550.13;5590714;31;33873;-63
2022/03/03 05:58:42;;;;;;;53.87;22.62;;;;;;;-2.62;89.55;100545.72;5590781;31;34346;-63
2022/03/03 06:01:45;;;;;;;40.25;22.37;;;;;;;-2.54;89.24;100542.69;5590742;31;34549;-63
2022/03/03 06:04:48;;;;;;;44.35;21.45;;;;;;;-2.53;88.85;100554.78;5591101;31;33885;-63
2022/03/03 06:07:57;;;;;;;39.25;21.85;;;;;;;-2.42;88.18;100553.28;5590906;31;34555;-62
2022/03/03 06:11:02;;;;;;;41.97;22.52;;;;;;;-2.30;87.32;100562.19;5590582;31;34443;-63
2022/03/03 06:14:07;;;;;;;42.10;21.83;;;;;;;-2.24;86.71;100562.69;5590563;31;33849;-63
2022/03/03 06:17:10;;;;;;;42.05;20.98;;;;;;;-2.12;87.04;100561.19;5590391;31;34212;-63
2022/03/03 06:20:13;;;;;;;41.67;20.23;;;;;;;-2.07;86.58;100564.38;5590648;31;33921;-63
2022/03/03 06:23:17;;;;;;;41.50;18.02;;;;;;;-1.87;85.27;100571.94;5590849;31;34104;-62
2022/03/03 06:26:20;;;;;;;39.95;17.77;;;;;;;-1.76;84.84;100571.34;5590370;31;33926;-63
2022/03/03 06:29:23;;;;;;;38.35;17.67;;;;;;;-1.68;84.14;100563.09;5590181;31;34054;-63
2022/03/03 06:32:25;;;;;;;42.65;19.52;;;;;;;-1.44;81.62;100564.31;5589836;31;33947;-63
2022/03/03 06:35:28;;;;;;;41.65;20.10;;;;;;;-1.38;81.36;100569.19;5590282;31;34671;-63
2022/03/03 06:38:31;;;;;;;42.03;21.10;;;;;;;-1.37;80.65;100582.13;5590212;31;34273;-63
2022/03/03 06:41:39;;;;;;;43.42;20.33;;;;;;;-1.35;81.08;100582.84;5590132;31;33892;-62
2022/03/03 06:44:41;;;;;;;41.80;20.92;;;;;;;-1.04;79.48;100581.94;5589712;31;34371;-63
2022/03/03 06:47:46;;;;;;;43.40;20.42;;;;;;;-0.99;77.64;100574.69;5589434;31;34180;-62
2022/03/03 06:50:56;;;;;;;41.55;20.12;;;;;;;-0.84;76.80;100580.75;5589328;31;33892;-62
2022/03/03 06:54:03;;;;;;;49.05;19.77;;;;;;;-0.54;74.84;100578.94;5589298;31;33517;-63
2022/03/03 06:57:09;;;;;;;38.47;19.30;;;;;;;0.29;71.67;100572.84;5590038;31;34855;-63
2022/03/03 07:00:13;;;;;;;40.55;19.60;;;;;;;0.58;69.70;100573.56;5590150;31;34513;-63
2022/03/03 07:03:16;;;;;;;49.85;18.90;;;;;;;0.78;67.21;100575.72;5589881;31;34890;-63
2022/03/03 07:06:19;;;;;;;38.08;19.12;;;;;;;0.25;68.78;100576.59;5589698;31;33333;-62
2022/03/03 07:09:22;;;;;;;41.53;20.05;;;;;;;-0.11;70.25;100571.94;5589802;31;33619;-63
2022/03/03 07:12:26;;;;;;;49.70;22.13;;;;;;;-0.30;70.60;100576.59;5589943;31;33284;-63
2022/03/03 07:15:29;;;;;;;44.15;19.85;;;;;;;-0.36;71.33;100587.41;5589551;31;34358;-63
2022/03/03 07:18:38;;;;;;;39.53;19.77;;;;;;;-0.41;71.38;100586.00;5589349;31;34876;-63
2022/03/03 07:22:09;;;;;;;50.40;19.70;;;;;;;-0.48;71.55;100580.31;5589677;31;33947;-63
2022/03/03 07:25:14;;;;;;;43.30;19.85;;;;;;;-0.34;70.58;100576.91;5589674;31;34060;-62
2022/03/03 07:28:19;;;;;;;47.30;21.17;;;;;;;-0.32;71.32;100580.22;5589783;31;35131;-63
2022/03/03 07:31:26;;;;;;;42.88;20.75;;;;;;;-0.25;71.01;100577.16;5588872;31;34299;-62
2022/03/03 07:34:31;;;;;;;40.22;19.62;;;;;;;-0.21;72.61;100581.25;5589548;31;34478;-63
2022/03/03 07:37:39;;;;;;;46.10;20.83;;;;;;;-0.08;72.04;100576.09;5589138;31;34281;-62
2022/03/03 07:40:43;;;;;;;41.30;19.77;;;;;;;-0.02;72.42;100570.50;5589936;31;34066;-62
2022/03/03 07:43:46;;;;;;;46.03;20.67;;;;;;;0.13;71.98;100566.09;5589517;31;33867;-63
2022/03/03 07:46:50;;;;;;;39.58;19.70;;;;;;;0.72;70.58;100554.44;5589631;31;33957;-62
2022/03/03 07:49:54;;;;;;;41.85;20.42;;;;;;;1.67;65.84;100547.88;5589250;31;34309;-62
2022/03/03 07:52:57;;;;;;;45.67;20.98;;;;;;;2.68;62.28;100543.22;5589415;31;33901;-63
2022/03/03 07:56:03;;;;;;;40.12;19.15;;;;;;;3.98;56.91;100548.84;5589509;31;34690;-63
2022/03/03 07:59:11;;;;;;;44.25;19.62;;;;;;;5.51;53.25;100549.25;5589507;31;34231;-63
2022/03/03 08:02:22;;;;;;;37.25;19.35;;;;;;;5.96;49.55;100554.12;5589518;31;33951;-62
2022/03/03 08:05:31;;;;;;;37.30;18.65;;;;;;;6.46;48.12;100553.16;5589592;31;33992;-63
2022/03/03 08:08:34;;;;;;;35.15;17.52;;;;;;;6.53;47.23;100550.81;5589932;31;33981;-63
2022/03/03 08:11:42;;;;;;;35.45;18.30;;;;;;;7.77;45.03;100544.47;5589721;31;33820;-63
2022/03/03 08:14:46;;;;;;;37.72;19.17;;;;;;;8.56;42.72;100538.59;5588734;31;34671;-62
2022/03/03 08:17:51;;;;;;;34.42;19.45;;;;;;;9.89;41.12;100530.22;5588810;31;34064;-64
2022/03/03 08:20:55;;;;;;;39.80;19.37;;;;;;;10.58;38.79;100539.72;5589346;31;34920;-63
2022/03/03 08:24:02;;;;;;;33.58;18.37;;;;;;;10.69;37.55;100534.12;5589404;31;34340;-64
2022/03/03 08:27:05;;;;;;;31.92;18.60;;;;;;;10.54;37.18;100526.97;5589570;31;34187;-63
2022/03/03 08:30:10;;;;;;;34.35;17.52;;;;;;;10.15;37.17;100519.56;5589540;31;34488;-64
2022/03/03 08:33:27;;;;;;;35.65;18.10;;;;;;;11.10;37.21;100524.31;5589453;31;34412;-63
2022/03/03 08:36:35;;;;;;;42.33;19.20;;;;;;;11.54;35.30;100523.91;5589379;31;34289;-65
2022/03/03 08:39:38;;;;;;;35.75;17.92;;;;;;;11.07;36.42;100521.16;5589187;31;34632;-64
2022/03/03 08:42:51;;;;;;;31.10;18.65;;;;;;;11.90;35.21;100519.00;5589291;31;34081;-65
2022/03/03 08:46:02;;;;;;;31.10;18.65;;;;;;;14.38;30.62;100517.06;5588295;31;34538;-66
2022/03/03 08:49:08;;;;;;;31.50;17.95;;;;;;;14.10;29.92;100507.06;5588222;31;34309;-63
2022/03/03 08:52:11;;;;;;;29.33;18.23;;;;;;;13.55;30.79;100502.25;5588943;31;34178;-64
2022/03/03 08:55:15;;;;;;;33.65;18.58;;;;;;;11.88;32.53;100499.72;5589044;31;34679;-64
2022/03/03 08:58:18;;;;;;;30.98;18.80;;;;;;;9.14;37.65;100504.53;5588579;31;34316;-63
2022/03/03 09:01:22;;;;;;;33.60;18.90;;;;;;;7.57;41.76;100505.91;5589001;31;35204;-64
2022/03/03 09:04:25;;;;;;;36.20;19.70;;;;;;;6.51;44.93;100515.84;5588965;31;34047;-63
2022/03/03 09:07:28;;;;;;;39.13;18.62;;;;;;;5.92;47.68;100518.50;5589117;31;33964;-63
2022/03/03 09:10:31;;;;;;;33.40;17.40;;;;;;;5.90;46.27;100502.03;5588907;31;33947;-63
2022/03/03 09:13:35;;;;;;;36.15;18.40;;;;;;;5.57;47.31;100508.37;5588679;31;34043;-64
2022/03/03 09:16:37;;;;;;;29.95;14.80;;;;;;;5.60;47.71;100511.59;5587927;31;34028;-63
2022/03/03 09:19:40;;;;;;;28.55;14.15;;;;;;;5.81;46.24;100514.16;5587884;31;34657;-63
2022/03/03 09:22:44;;;;;;;23.80;12.60;;;;;;;5.43;46.47;100506.13;5588776;31;35073;-63
2022/03/03 09:25:47;;;;;;;26.08;13.32;;;;;;;5.23;46.80;100515.69;5588856;31;34397;-63
2022/03/03 09:28:50;;;;;;;36.35;13.38;;;;;;;5.27;47.23;100505.78;5590518;31;33795;-63
2022/03/03 09:31:53;;;;;;;30.85;14.27;;;;;;;5.24;48.67;100496.34;5591287;31;33923;-62
2022/03/03 09:34:55;;;;;;;27.23;14.18;;;;;;;5.43;47.59;100496.41;5590591;31;34451;-63
2022/03/03 09:37:59;;;;;;;26.23;13.85;;;;;;;5.36;46.87;100495.31;5590673;31;34044;-62
2022/03/03 09:41:07;;;;;;;28.20;12.52;;;;;;;5.12;47.86;100497.38;5590599;31;34643;-62
2022/03/03 09:44:13;;;;;;;27.55;13.80;;;;;;;5.18;47.35;100497.69;5590857;31;33995;-62
2022/03/03 09:47:17;;;;;;;25.65;13.93;;;;;;;5.14;47.98;100501.53;5590522;31;34030;-62
2022/03/03 09:50:22;;;;;;;24.12;13.30;;;;;;;5.30;47.61;100489.72;5591021;31;35284;-63
2022/03/03 09:53:25;;;;;;;27.65;13.77;;;;;;;5.21;47.22;100494.81;5589800;31;34757;-63
2022/03/03 09:56:28;;;;;;;31.20;13.13;;;;;;;5.24;46.72;100486.66;5590671;31;34630;-63
2022/03/03 09:59:30;;;;;;;26.75;13.73;;;;;;;5.14;47.62;100485.75;5590260;31;34015;-62
2022/03/03 10:02:53;;;;;;;24.23;13.48;;;;;;;5.20;47.27;100487.87;5590465;31;34606;-62
2022/03/03 10:06:00;;;;;;;26.45;13.32;;;;;;;5.46;46.63;100500.59;5590133;31;33996;-63
2022/03/03 10:09:02;;;;;;;28.20;13.32;;;;;;;5.44;46.78;100498.09;5590252;31;33995;-63
2022/03/03 10:12:07;;;;;;;28.12;12.43;;;;;;;5.24;47.06;100494.53;5590822;31;33651;-65
2022/03/03 10:15:14;;;;;;;30.65;13.40;;;;;;;5.13;47.53;100489.34;5590820;31;34865;-62
2022/03/03 10:18:19;;;;;;;27.90;12.75;;;;;;;5.06;47.80;100490.84;5590509;31;34075;-63
2022/03/03 10:21:27;;;;;;;28.67;12.63;;;;;;;5.11;47.74;100479.94;5590076;31;34720;-63
2022/03/03 10:24:30;;;;;;;28.83;12.30;;;;;;;5.40;46.71;100483.53;5589457;31;34674;-64
2022/03/03 10:27:34;;;;;;;25.02;11.32;;;;;;;5.52;46.25;100481.63;5589711;31;34019;-62
2022/03/03 10:30:57;;;;;;;22.50;11.65;;;;;;;5.75;45.60;100477.84;5590042;31;34055;-63
2022/03/03 10:34:00;;;;;;;33.22;11.05;;;;;;;5.91;45.94;100469.44;5590285;31;34009;-63
2022/03/03 10:37:08;;;;;;;35.17;11.80;;;;;;;6.11;45.97;100469.34;5589520;31;33930;-63
2022/03/03 10:40:14;;;;;;;19.37;9.68;;;;;;;6.16;45.42;100476.84;5590140;31;33946;-63
2022/03/03 10:43:17;;;;;;;21.73;11.05;;;;;;;6.21;43.91;100474.63;5590397;31;34655;-63
2022/03/03 10:46:20;;;;;;;20.40;11.00;;;;;;;6.34;43.85;100461.19;5590053;31;33926;-63
2022/03/03 10:49:25;;;;;;;23.35;11.93;;;;;;;6.53;43.21;100456.72;5594663;31;34691;-61
2022/03/03 10:52:34;;;;;;;29.12;11.65;;;;;;;6.81;43.58;100452.41;5595225;31;33755;-62
2022/03/03 10:55:37;;;;;;;21.05;11.88;;;;;;;6.79;43.63;100450.87;5591024;31;34112;-62
2022/03/03 10:58:46;;;;;;;21.83;11.73;;;;;;;6.88;43.47;100439.47;5590415;31;33888;-62
2022/03/03 11:01:50;;;;;;;20.00;10.13;;;;;;;7.29;41.96;100438.25;5589642;31;33999;-63
2022/03/03 11:04:53;;;;;;;20.58;11.65;;;;;;;7.34;41.63;100436.84;5590226;31;33905;-63
2022/03/03 11:07:58;;;;;;;23.70;11.68;;;;;;;7.31;41.22;100445.03;5589861;31;34167;-63
2022/03/03 11:11:03;;;;;;;23.80;11.77;;;;;;;6.92;42.26;100441.69;5589890;31;33990;-63
2022/03/03 11:14:06;;;;;;;23.52;11.80;;;;;;;7.53;41.20;100421.88;5589695;31;34567;-63
2022/03/03 11:17:12;;;;;;;30.20;11.88;;;;;;;8.48;39.37;100415.06;5590153;31;33908;-65
2022/03/03 11:20:17;;;;;;;30.50;12.05;;;;;;;8.00;40.64;100417.25;5590035;31;34669;-62
2022/03/03 11:23:20;;;;;;;21.90;12.40;;;;;;;8.41;39.13;100403.47;5590250;31;34500;-64
2022/03/03 11:26:49;;;;;;;25.73;13.48;;;;;;;8.87;39.31;100404.09;5589577;31;34190;-63
2022/03/03 11:30:10;;;;;;;28.70;12.32;;;;;;;8.84;38.57;100399.97;5589727;31;34677;-63
2022/03/03 11:33:27;;;;;;;23.25;11.85;;;;;;;8.05;39.73;100391.22;5589843;31;34002;-63
2022/03/03 11:36:43;;;;;;;22.25;11.05;;;;;;;8.49;39.03;100400.88;5590134;31;34555;-63
2022/03/03 11:40:06;;;;;;;22.40;11.73;;;;;;;9.98;36.43;100398.56;5590248;31;34215;-63
2022/03/03 11:43:12;;;;;;;26.20;11.27;;;;;;;10.22;35.34;100392.50;5589830;31;34361;-63
2022/03/03 11:46:48;;;;;;;20.85;12.57;;;;;;;10.78;35.75;100395.12;5590038;31;34019;-63
2022/03/03 11:50:01;;;;;;;22.30;12.55;;;;;;;9.04;38.17;100385.53;5588805;31;34268;-63
2022/03/03 11:53:04;;;;;;;27.95;12.45;;;;;;;9.05;38.62;100381.88;5589616;31;34340;-63
2022/03/03 11:56:07;;;;;;;21.10;11.70;;;;;;;8.75;39.33;100374.47;5589956;31;34027;-63
2022/03/03 11:59:12;;;;;;;22.48;11.80;;;;;;;9.44;38.08;100373.47;5589932;31;34227;-63
2022/03/03 12:02:30;;;;;;;24.27;11.52;;;;;;;9.17;37.80;100366.56;5589684;31;33946;-63
2022/03/03 12:05:44;;;;;;;20.23;11.63;;;;;;;9.02;38.00;100374.28;5589639;31;34128;-63
2022/03/03 12:08:47;;;;;;;21.12;11.70;;;;;;;8.85;38.88;100363.78;5589829;31;35143;-63
2022/03/03 12:12:10;;;;;;;22.15;11.02;;;;;;;9.05;38.48;100360.72;5589304;31;34829;-63
2022/03/03 12:15:13;;;;;;;21.42;11.73;;;;;;;9.05;37.93;100358.06;5589407;31;33997;-63
2022/03/03 12:18:16;;;;;;;19.98;11.25;;;;;;;8.61;39.20;100360.00;5589357;31;33971;-64
2022/03/03 12:21:26;;;;;;;21.15;10.90;;;;;;;10.69;35.32;100348.38;5589519;31;34654;-63
2022/03/03 12:24:36;;;;;;;17.87;10.20;;;;;;;11.68;32.90;100350.44;5589262;31;34273;-64
2022/03/03 12:28:15;;;;;;;18.75;10.68;;;;;;;14.43;28.64;100344.63;5589621;31;33965;-64
2022/03/03 12:31:30;;;;;;;20.67;10.38;;;;;;;16.40;25.94;100341.94;5589003;31;34941;-63
2022/03/03 12:34:44;;;;;;;18.90;10.15;;;;;;;15.18;27.17;100343.88;5589377;31;34212;-63
2022/03/03 12:37:50;;;;;;;16.52;10.20;;;;;;;14.91;27.32;100342.09;5589362;31;34388;-63
2022/03/03 12:40:53;;;;;;;15.27;9.45;;;;;;;15.39;26.93;100335.75;5589375;31;35237;-64
2022/03/03 12:44:03;;;;;;;21.40;10.32;;;;;;;14.82;27.58;100338.75;5589286;31;33914;-64
2022/03/03 12:47:07;;;;;;;21.42;10.65;;;;;;;13.74;29.17;100339.06;5589500;31;34635;-64
2022/03/03 12:50:20;;;;;;;19.25;11.02;;;;;;;15.73;27.42;100329.53;5589511;31;34371;-63
2022/03/03 12:53:34;;;;;;;19.80;10.50;;;;;;;18.01;23.69;100323.03;5589163;31;34591;-64
2022/03/03 12:56:37;;;;;;;20.48;10.40;;;;;;;14.38;28.12;100328.37;5588939;31;34654;-64
2022/03/03 12:59:40;;;;;;;17.35;10.90;;;;;;;16.76;25.40;100314.72;5588564;31;33877;-64
2022/03/03 13:02:54;;;;;;;21.60;10.70;;;;;;;18.81;22.84;100317.84;5589323;31;34529;-65
2022/03/03 13:05:57;;;;;;;20.25;11.00;;;;;;;17.58;24.05;100312.13;5589347;31;34555;-65
2022/03/03 13:09:04;;;;;;;21.20;10.50;;;;;;;15.89;25.74;100301.53;5588976;31;34683;-64
2022/03/03 13:12:10;;;;;;;24.85;10.63;;;;;;;15.03;27.44;100314.63;5589168;31;34166;-64
2022/03/03 13:15:13;;;;;;;21.40;10.65;;;;;;;16.20;26.49;100308.97;5588992;31;33966;-64
2022/03/03 13:18:21;;;;;;;19.62;11.40;;;;;;;16.24;25.62;100302.19;5588696;31;34606;-65
2022/03/03 13:21:29;;;;;;;18.33;10.82;;;;;;;15.01;27.38;100305.97;5588799;31;34454;-64
2022/03/03 13:24:31;;;;;;;21.20;11.02;;;;;;;12.45;30.91;100298.84;5588537;31;33954;-64
2022/03/03 13:27:47;;;;;;;20.12;10.80;;;;;;;13.19;30.20;100291.69;5588393;31;33881;-64
2022/03/03 13:30:55;;;;;;;19.75;11.12;;;;;;;12.59;32.64;100282.06;5588382;31;32636;-64
2022/03/03 13:34:03;;;;;;;19.20;11.32;;;;;;;14.03;29.03;100287.44;5588402;31;34333;-65
2022/03/03 13:37:15;;;;;;;27.37;11.23;;;;;;;13.30;30.46;100279.72;5587199;31;34579;-65
2022/03/03 13:40:25;;;;;;;21.10;10.95;;;;;;;13.66;30.05;100287.69;5587375;31;33919;-64
2022/03/03 13:43:28;;;;;;;18.55;10.75;;;;;;;12.47;31.30;100280.03;5588502;31;34298;-64
2022/03/03 13:46:32;;;;;;;25.23;11.80;;;;;;;11.77;32.60;100281.16;5588447;31;34583;-64
2022/03/03 13:49:47;;;;;;;20.83;11.40;;;;;;;10.82;34.23;100274.37;5588418;31;34427;-63
2022/03/03 13:52:50;;;;;;;34.35;11.80;;;;;;;10.60;34.40;100275.09;5587377;31;34069;-63
2022/03/03 13:56:05;;;;;;;21.02;10.88;;;;;;;11.60;33.68;100273.47;5587808;31;35145;-63
2022/03/03 13:59:12;;;;;;;22.92;11.95;;;;;;;11.69;32.39;100261.75;5587575;31;34288;-63
2022/03/03 14:02:16;;;;;;;20.45;11.48;;;;;;;11.20;33.67;100264.72;5587805;31;33919;-63
2022/03/03 14:05:37;;;;;;;21.87;11.68;;;;;;;11.64;32.67;100259.62;5587499;31;34200;-63